createdAt,value
2019-05-10T00:00:47.050Z,39.15
2019-05-10T00:01:47.045Z,38.99
2019-05-10T00:02:47.036Z,39.31
2019-05-10T00:03:47.031Z,38.99
2019-05-10T00:04:47.025Z,39.15
2019-05-10T00:05:47.020Z,38.99
2019-05-10T00:06:47.017Z,39.31
2019-05-10T00:07:47.010Z,39.31
2019-05-10T00:08:47.189Z,38.99
2019-05-10T00:09:46.999Z,38.99
2019-05-10T00:13:14.704Z,39.47
2019-05-10T00:14:14.700Z,39.31
2019-05-10T00:15:14.693Z,38.83
2019-05-10T00:16:14.684Z,39.31
2019-05-10T00:17:14.679Z,39.31
2019-05-10T00:18:14.670Z,38.83
2019-05-10T00:19:14.666Z,39.31
2019-05-10T00:20:14.658Z,38.99
2019-05-10T00:21:14.650Z,39.31
2019-05-10T00:22:14.648Z,38.99
2019-05-10T00:23:14.638Z,39.15
2019-05-10T00:25:42.376Z,39.47
2019-05-10T00:26:42.370Z,39.15
2019-05-10T00:29:10.088Z,38.99
2019-05-10T00:30:10.087Z,39.15
2019-05-10T00:31:10.078Z,39.47
2019-05-10T00:32:10.073Z,38.99
2019-05-10T00:33:10.065Z,38.99
2019-05-10T00:35:10.052Z,38.99
2019-05-10T00:36:10.047Z,38.99
2019-05-10T00:37:10.039Z,38.99
2019-05-10T00:38:10.033Z,39.47
2019-05-10T00:39:10.027Z,39.31
2019-05-10T00:40:10.058Z,38.83
2019-05-10T00:41:10.016Z,39.31
2019-05-10T00:42:10.036Z,39.31
2019-05-10T00:43:10.000Z,39.15
2019-05-10T00:44:09.995Z,39.15
2019-05-10T00:45:09.988Z,39.47
2019-05-10T00:46:09.983Z,38.83
2019-05-10T00:47:09.980Z,39.31
2019-05-10T00:48:09.970Z,38.99
2019-05-10T00:49:09.964Z,38.99
2019-05-10T00:50:09.957Z,38.99
2019-05-10T00:51:09.952Z,38.83
2019-05-10T00:52:09.957Z,38.99
2019-05-10T00:53:09.939Z,39.15
2019-05-10T00:54:09.931Z,38.99
2019-05-10T00:55:18.382Z,38.99
2019-05-10T00:56:11.921Z,38.83
2019-05-10T00:57:09.916Z,38.51
2019-05-10T00:58:09.907Z,39.31
2019-05-10T00:59:09.905Z,38.83
2019-05-10T01:00:09.897Z,39.31
2019-05-10T01:01:09.888Z,38.67
2019-05-10T01:02:09.887Z,38.99
2019-05-10T01:03:09.877Z,38.99
2019-05-10T01:04:09.870Z,38.99
2019-05-10T01:06:37.587Z,38.99
2019-05-10T01:07:37.591Z,38.99
2019-05-10T01:08:37.572Z,38.99
2019-05-10T01:09:37.566Z,38.99
2019-05-10T01:10:37.566Z,39.15
2019-05-10T01:11:37.555Z,38.99
2019-05-10T01:12:37.544Z,38.99
2019-05-10T01:13:37.544Z,39.31
2019-05-10T01:14:37.532Z,38.99
2019-05-10T01:15:37.528Z,39.15
2019-05-10T01:16:37.521Z,39.31
2019-05-10T01:17:37.513Z,38.99
2019-05-10T01:19:37.500Z,39.31
2019-05-10T01:21:37.485Z,38.99
2019-05-10T01:24:05.202Z,39.47
2019-05-10T01:25:05.199Z,38.83
2019-05-10T01:26:05.192Z,38.83
2019-05-10T01:27:05.183Z,39.63
2019-05-10T01:28:05.179Z,38.99
2019-05-10T01:29:05.171Z,39.47
2019-05-10T01:30:05.173Z,39.15
2019-05-10T01:31:05.161Z,38.99
2019-05-10T01:32:05.162Z,39.31
2019-05-10T01:33:05.145Z,39.31
2019-05-10T01:34:05.140Z,39.31
2019-05-10T01:35:05.132Z,39.31
2019-05-10T01:36:05.126Z,39.31
2019-05-10T01:37:05.117Z,39.31
2019-05-10T01:38:05.109Z,39.47
2019-05-10T01:39:05.105Z,39.31
2019-05-10T01:40:05.096Z,39.31
2019-05-10T01:41:05.089Z,39.15
2019-05-10T01:42:05.083Z,39.47
2019-05-10T01:43:05.075Z,39.15
2019-05-10T01:44:05.069Z,39.31
2019-05-10T01:45:05.064Z,39.31
2019-05-10T01:47:32.776Z,39.31
2019-05-10T01:48:32.771Z,39.47
2019-05-10T01:49:32.767Z,39.47
2019-05-10T01:50:32.760Z,39.47
2019-05-10T01:51:32.758Z,38.99
2019-05-10T01:52:32.747Z,39.15
2019-05-10T01:53:32.740Z,39.15
2019-05-10T01:54:32.737Z,39.47
2019-05-10T01:55:32.727Z,39.47
2019-05-10T01:56:32.720Z,39.31
2019-05-10T01:57:32.714Z,39.47
2019-05-10T01:58:32.707Z,39.31
2019-05-10T01:59:32.700Z,38.99
2019-05-10T02:02:05.480Z,39.47
2019-05-10T02:03:05.474Z,39.47
2019-05-10T02:04:05.464Z,39.79
2019-05-10T02:05:05.455Z,39.31
2019-05-10T02:06:05.451Z,39.31
2019-05-10T02:07:05.493Z,39.63
2019-05-10T02:08:05.469Z,39.15
2019-05-10T02:09:05.497Z,39.63
2019-05-10T02:10:05.437Z,39.63
2019-05-10T02:11:05.430Z,39.63
2019-05-10T02:12:05.424Z,39.15
2019-05-10T02:13:05.414Z,39.47
2019-05-10T02:14:05.408Z,39.47
2019-05-10T02:15:05.405Z,39.63
2019-05-10T02:16:05.397Z,39.79
2019-05-10T02:18:33.315Z,39.47
2019-05-10T02:19:33.109Z,39.47
2019-05-10T02:20:33.099Z,39.63
2019-05-10T02:21:33.094Z,39.63
2019-05-10T02:22:33.092Z,39.63
2019-05-10T02:23:33.080Z,39.47
2019-05-10T02:24:33.078Z,39.15
2019-05-10T02:25:33.068Z,39.47
2019-05-10T02:26:33.063Z,39.47
2019-05-10T02:27:33.057Z,39.63
2019-05-10T02:28:33.047Z,39.63
2019-05-10T02:29:33.048Z,39.31
2019-05-10T02:30:33.057Z,39.31
2019-05-10T02:31:33.036Z,39.47
2019-05-10T02:32:33.033Z,39.47
2019-05-10T02:33:33.021Z,39.63
2019-05-10T02:34:33.016Z,39.47
2019-05-10T02:35:33.011Z,39.63
2019-05-10T02:36:32.999Z,39.79
2019-05-10T02:37:32.993Z,39.96
2019-05-10T02:38:32.988Z,39.47
2019-05-10T02:39:32.977Z,39.47
2019-05-10T02:40:32.997Z,39.47
2019-05-10T02:41:32.970Z,39.63
2019-05-10T02:42:33.160Z,39.63
2019-05-10T02:43:32.955Z,39.79
2019-05-10T02:44:32.947Z,39.63
2019-05-10T02:45:32.938Z,39.63
2019-05-10T02:46:32.935Z,39.47
2019-05-10T02:47:32.925Z,39.79
2019-05-10T02:48:32.920Z,39.15
2019-05-10T02:49:32.914Z,39.31
2019-05-10T02:50:32.909Z,39.63
2019-05-10T02:51:32.898Z,39.31
2019-05-10T02:52:32.899Z,39.47
2019-05-10T02:56:30.868Z,39.31
2019-05-10T02:57:28.338Z,39.63
2019-05-10T02:58:28.332Z,39.47
2019-05-10T02:59:28.329Z,39.47
2019-05-10T03:00:28.326Z,39.47
2019-05-10T03:01:28.319Z,39.31
2019-05-10T03:02:28.314Z,39.47
2019-05-10T03:03:28.296Z,39.47
2019-05-10T03:04:28.293Z,39.63
2019-05-10T03:05:28.283Z,39.96
2019-05-10T03:06:28.344Z,39.15
2019-05-10T03:08:28.266Z,39.47
2019-05-10T03:09:28.280Z,39.15
2019-05-10T03:11:55.994Z,39.79
2019-05-10T03:12:55.989Z,39.47
2019-05-10T03:13:55.985Z,39.79
2019-05-10T03:14:55.979Z,39.63
2019-05-10T03:15:55.973Z,39.47
2019-05-10T03:17:55.955Z,39.63
2019-05-10T03:18:55.952Z,39.63
2019-05-10T03:19:55.948Z,39.47
2019-05-10T03:20:55.939Z,39.96
2019-05-10T03:21:55.934Z,39.31
2019-05-10T03:22:55.924Z,39.79
2019-05-10T03:23:55.918Z,39.31
2019-05-10T03:24:55.912Z,38.99
2019-05-10T03:25:55.905Z,39.63
2019-05-10T03:26:55.897Z,39.79
2019-05-10T03:27:55.898Z,39.63
2019-05-10T03:28:55.908Z,38.83
2019-05-10T03:29:55.901Z,39.63
2019-05-10T03:32:23.628Z,39.79
2019-05-10T03:33:23.771Z,38.99
2019-05-10T03:34:23.619Z,39.47
2019-05-10T03:36:23.604Z,39.47
2019-05-10T03:37:23.607Z,39.31
2019-05-10T03:38:23.613Z,39.31
2019-05-10T03:39:23.588Z,39.31
2019-05-10T03:40:23.578Z,39.79
2019-05-10T03:41:23.576Z,39.31
2019-05-10T03:42:23.563Z,39.31
2019-05-10T03:43:23.555Z,39.63
2019-05-10T03:44:23.547Z,39.63
2019-05-10T03:45:23.540Z,39.47
2019-05-10T03:46:23.534Z,39.47
2019-05-10T03:47:23.526Z,38.99
2019-05-10T03:49:23.514Z,39.47
2019-05-10T03:50:23.505Z,39.63
2019-05-10T03:51:23.528Z,39.96
2019-05-10T03:52:23.526Z,39.47
2019-05-10T03:53:23.521Z,39.79
2019-05-10T03:54:23.517Z,39.63
2019-05-10T03:55:23.512Z,39.79
2019-05-10T03:56:23.506Z,39.79
2019-05-10T03:57:23.497Z,39.63
2019-05-10T03:58:23.493Z,40.12
2019-05-10T03:59:23.488Z,40.12
2019-05-10T04:00:23.702Z,39.63
2019-05-10T04:01:23.497Z,39.47
2019-05-10T04:02:23.488Z,40.12
2019-05-10T04:03:23.498Z,39.79
2019-05-10T04:04:23.477Z,40.12
2019-05-10T04:05:23.472Z,39.79
2019-05-10T04:06:23.481Z,39.47
2019-05-10T04:08:23.450Z,39.63
2019-05-10T04:09:23.452Z,39.47
2019-05-10T04:10:23.443Z,39.96
2019-05-10T04:11:23.521Z,39.79
2019-05-10T04:12:23.449Z,39.63
2019-05-10T04:13:23.419Z,39.47
2019-05-10T04:14:23.477Z,39.96
2019-05-10T04:15:23.407Z,39.63
2019-05-10T04:16:23.396Z,39.96
2019-05-10T04:17:23.396Z,40.28
2019-05-10T04:18:23.388Z,39.96
2019-05-10T04:19:23.380Z,40.12
2019-05-10T04:20:23.373Z,39.63
2019-05-10T04:21:23.366Z,38.99
2019-05-10T04:22:23.361Z,40.28
2019-05-10T04:23:23.355Z,40.12
2019-05-10T04:24:23.355Z,39.63
2019-05-10T04:25:23.346Z,39.63
2019-05-10T04:26:23.336Z,39.63
2019-05-10T04:27:31.971Z,39.47
2019-05-10T04:29:51.051Z,39.96
2019-05-10T04:30:51.039Z,39.96
2019-05-10T04:31:51.031Z,39.79
2019-05-10T04:32:51.027Z,39.47
2019-05-10T04:33:51.020Z,39.31
2019-05-10T04:34:51.014Z,40.12
2019-05-10T04:35:51.007Z,39.96
2019-05-10T04:36:51.001Z,39.31
2019-05-10T04:37:50.996Z,40.12
2019-05-10T04:38:50.987Z,39.96
2019-05-10T04:39:50.980Z,39.15
2019-05-10T04:40:50.974Z,39.79
2019-05-10T04:41:50.966Z,39.31
2019-05-10T04:42:50.960Z,39.15
2019-05-10T04:43:50.952Z,39.47
2019-05-10T04:46:18.692Z,39.79
2019-05-10T04:47:18.686Z,38.83
2019-05-10T04:48:18.675Z,39.47
2019-05-10T04:49:18.669Z,39.15
2019-05-10T04:50:18.669Z,39.63
2019-05-10T04:51:18.659Z,39.47
2019-05-10T04:52:18.702Z,39.31
2019-05-10T04:53:18.648Z,38.99
2019-05-10T04:54:18.647Z,39.47
2019-05-10T04:55:18.633Z,39.31
2019-05-10T04:56:18.626Z,39.47
2019-05-10T04:57:18.618Z,38.99
2019-05-10T04:58:18.613Z,38.99
2019-05-10T04:59:18.603Z,39.31
2019-05-10T05:00:18.609Z,39.63
2019-05-10T05:01:18.596Z,38.99
2019-05-10T05:02:22.017Z,40.12
2019-05-10T05:03:18.593Z,39.15
2019-05-10T05:04:18.581Z,38.99
2019-05-10T05:05:18.643Z,38.83
2019-05-10T05:06:18.575Z,39.63
2019-05-10T05:07:18.561Z,38.99
2019-05-10T05:08:18.555Z,39.63
2019-05-10T05:09:18.550Z,39.63
2019-05-10T05:10:18.548Z,39.79
2019-05-10T05:11:18.558Z,39.47
2019-05-10T05:12:18.550Z,40.12
2019-05-10T05:13:18.556Z,39.79
2019-05-10T05:14:18.538Z,40.12
2019-05-10T05:15:18.532Z,39.63
2019-05-10T05:17:46.244Z,39.79
2019-05-10T05:18:46.255Z,39.79
2019-05-10T05:19:46.232Z,39.47
2019-05-10T05:20:46.226Z,38.99
2019-05-10T05:21:46.219Z,39.63
2019-05-10T05:22:46.214Z,39.31
2019-05-10T05:23:46.209Z,38.99
2019-05-10T05:24:46.199Z,39.47
2019-05-10T05:25:46.193Z,39.79
2019-05-10T05:26:46.188Z,39.79
2019-05-10T05:27:46.181Z,39.31
2019-05-10T05:28:46.172Z,38.99
2019-05-10T05:29:46.168Z,39.47
2019-05-10T05:30:46.160Z,38.83
2019-05-10T05:31:46.162Z,39.63
2019-05-10T05:32:46.147Z,39.47
2019-05-10T05:33:46.140Z,39.15
2019-05-10T05:34:46.134Z,39.47
2019-05-10T05:35:46.124Z,39.31
2019-05-10T05:36:46.118Z,38.83
2019-05-10T05:37:46.112Z,39.31
2019-05-10T05:38:47.486Z,39.31
2019-05-10T05:39:46.099Z,39.15
2019-05-10T05:40:46.101Z,39.31
2019-05-10T05:41:51.595Z,39.63
2019-05-10T05:42:48.080Z,39.79
2019-05-10T05:43:48.067Z,38.99
2019-05-10T05:44:46.067Z,39.47
2019-05-10T05:45:46.058Z,39.96
2019-05-10T05:46:46.054Z,39.96
2019-05-10T05:47:46.044Z,39.79
2019-05-10T05:48:46.242Z,39.96
2019-05-10T05:49:46.034Z,39.47
2019-05-10T05:50:46.021Z,40.28
2019-05-10T05:52:19.274Z,39.47
2019-05-10T05:52:46.021Z,39.31
2019-05-10T05:53:46.049Z,39.63
2019-05-10T05:54:45.993Z,39.79
2019-05-10T05:56:50.821Z,38.99
2019-05-10T06:00:44.654Z,40.28
2019-05-10T06:01:41.428Z,40.44
2019-05-10T06:02:45.053Z,40.28
2019-05-10T06:03:41.412Z,39.79
2019-05-10T06:04:46.263Z,39.63
2019-05-10T06:07:11.120Z,39.96
2019-05-10T06:09:37.835Z,39.79
2019-05-10T06:10:36.881Z,40.28
2019-05-10T06:11:37.843Z,40.12
2019-05-10T06:12:36.873Z,39.63
2019-05-10T06:13:36.916Z,39.96
2019-05-10T06:14:36.857Z,39.79
2019-05-10T06:18:32.300Z,40.12
2019-05-10T06:19:32.291Z,39.96
2019-05-10T06:20:32.287Z,40.12
2019-05-10T06:21:32.281Z,39.63
2019-05-10T06:22:32.282Z,39.47
2019-05-10T06:23:35.127Z,39.31
2019-05-10T06:24:34.371Z,39.47
2019-05-10T06:25:39.204Z,39.63
2019-05-10T06:26:34.250Z,39.63
2019-05-10T06:27:35.425Z,39.96
2019-05-10T06:30:00.008Z,39.15
2019-05-10T06:30:59.953Z,39.47
2019-05-10T06:31:59.954Z,39.63
2019-05-10T06:33:11.294Z,38.83
2019-05-10T06:35:29.661Z,39.63
2019-05-10T06:36:27.705Z,39.79
2019-05-10T06:37:31.218Z,39.63
2019-05-10T06:38:27.642Z,39.63
2019-05-10T06:39:27.637Z,39.47
2019-05-10T06:40:35.611Z,39.15
2019-05-10T06:42:55.353Z,39.63
2019-05-10T06:43:55.335Z,40.12
2019-05-10T06:46:23.799Z,39.15
2019-05-10T06:48:50.973Z,39.31
2019-05-10T06:49:52.305Z,39.63
2019-05-10T06:50:50.764Z,39.15
2019-05-10T06:51:51.007Z,39.15
2019-05-10T06:52:52.155Z,39.47
2019-05-10T06:53:53.623Z,38.67
2019-05-10T06:54:50.733Z,39.15
2019-05-10T06:55:50.734Z,38.99
2019-05-10T06:56:50.744Z,38.51
2019-05-10T06:57:59.577Z,39.15
2019-05-10T07:00:18.458Z,38.99
2019-05-10T07:01:18.450Z,38.67
2019-05-10T07:02:20.072Z,40.28
2019-05-10T07:04:46.157Z,38.83
2019-05-10T07:05:46.153Z,38.67
2019-05-10T07:06:46.148Z,38.83
2019-05-10T07:07:46.139Z,39.47
2019-05-10T07:08:46.227Z,39.15
2019-05-10T07:10:03.781Z,38.99
2019-05-10T07:10:48.118Z,38.99
2019-05-10T07:11:46.113Z,39.31
2019-05-10T07:12:46.159Z,38.67
2019-05-10T07:13:48.733Z,38.99
2019-05-10T07:14:48.105Z,38.67
2019-05-10T07:15:46.096Z,38.83
2019-05-10T07:16:46.092Z,38.99
2019-05-10T07:17:47.381Z,38.83
2019-05-10T07:18:46.108Z,38.99
2019-05-10T07:19:53.838Z,38.99
2019-05-10T07:22:13.813Z,38.83
2019-05-10T07:23:13.807Z,39.15
2019-05-10T07:24:18.356Z,38.99
2019-05-10T07:28:15.468Z,39.15
2019-05-10T07:30:41.554Z,38.99
2019-05-10T07:31:36.955Z,38.83
2019-05-10T07:32:36.984Z,38.67
2019-05-10T07:33:39.212Z,39.47
2019-05-10T07:34:36.933Z,38.99
2019-05-10T07:35:38.643Z,38.83
2019-05-10T07:36:36.915Z,38.34
2019-05-10T07:37:36.908Z,38.51
2019-05-10T07:38:36.901Z,38.83
2019-05-10T07:39:36.895Z,38.99
2019-05-10T07:40:37.090Z,38.34
2019-05-10T07:41:37.106Z,38.51
2019-05-10T07:42:39.843Z,38.34
2019-05-10T07:45:04.594Z,38.83
2019-05-10T07:47:32.645Z,38.83
2019-05-10T07:48:31.752Z,38.99
2019-05-10T07:49:32.531Z,39.15
2019-05-10T07:50:31.741Z,38.83
2019-05-10T07:51:31.789Z,38.51
2019-05-10T07:52:36.510Z,38.67
2019-05-10T07:56:26.145Z,39.31
2019-05-10T07:57:27.024Z,38.51
2019-05-10T07:59:57.685Z,38.18
2019-05-10T08:02:22.572Z,38.99
2019-05-10T08:03:23.739Z,38.83
2019-05-10T08:04:28.856Z,38.99
2019-05-10T08:08:15.021Z,38.51
2019-05-10T08:09:15.018Z,38.51
2019-05-10T08:10:15.009Z,38.99
2019-05-10T08:11:15.005Z,38.67
2019-05-10T08:12:14.997Z,39.31
2019-05-10T08:13:15.434Z,38.99
2019-05-10T08:14:14.982Z,38.83
2019-05-10T08:15:14.976Z,38.99
2019-05-10T08:16:21.905Z,39.31
2019-05-10T08:18:42.632Z,39.31
2019-05-10T08:19:42.180Z,38.67
2019-05-10T08:20:50.445Z,38.83
2019-05-10T08:23:09.363Z,38.99
2019-05-10T08:24:13.703Z,38.99
2019-05-10T08:28:05.790Z,38.99
2019-05-10T08:29:07.674Z,39.31
2019-05-10T08:31:39.278Z,38.67
2019-05-10T08:38:22.049Z,38.83
2019-05-10T08:39:22.199Z,39.15
2019-05-10T08:40:24.534Z,39.31
2019-05-10T08:41:22.374Z,38.99
2019-05-10T08:42:38.098Z,39.15
2019-05-10T08:44:53.737Z,38.83
2019-05-10T08:48:50.722Z,38.67
2019-05-10T08:50:06.491Z,38.83
2019-05-10T08:52:13.743Z,38.99
2019-05-10T08:53:16.422Z,38.83
2019-05-10T08:55:13.726Z,38.99
2019-05-10T08:56:20.895Z,38.83
2019-05-10T09:03:09.723Z,39.47
2019-05-10T09:04:10.870Z,38.67
2019-05-10T09:05:07.814Z,39.47
2019-05-10T09:06:11.880Z,38.99
2019-05-10T09:08:35.060Z,38.83
2019-05-10T09:09:45.599Z,39.63
2019-05-10T09:12:04.085Z,39.31
2019-05-10T09:15:58.703Z,38.83
2019-05-10T09:17:01.641Z,39.31
2019-05-10T09:19:39.615Z,38.83
2019-05-10T09:21:56.435Z,39.15
2019-05-10T09:22:56.170Z,38.99
2019-05-10T09:24:01.480Z,38.83
2019-05-10T09:24:56.160Z,38.99
2019-05-10T09:25:56.152Z,38.99
2019-05-10T09:26:57.068Z,38.83
2019-05-10T09:27:56.140Z,39.31
2019-05-10T09:28:57.715Z,38.83
2019-05-10T09:29:56.128Z,38.99
2019-05-10T09:31:01.016Z,38.99
2019-05-10T09:34:26.070Z,38.99
2019-05-10T09:35:23.321Z,39.47
2019-05-10T09:36:31.235Z,38.99
2019-05-10T09:37:25.324Z,38.99
2019-05-10T09:38:23.303Z,39.15
2019-05-10T09:39:25.269Z,38.67
2019-05-10T09:40:23.289Z,38.99
2019-05-10T09:41:27.587Z,38.67
2019-05-10T09:42:31.881Z,38.67
2019-05-10T09:44:52.626Z,38.51
2019-05-10T09:45:52.848Z,39.63
2019-05-10T09:46:52.478Z,39.63
2019-05-10T09:49:18.659Z,38.99
2019-05-10T09:50:17.723Z,38.83
2019-05-10T09:51:19.111Z,39.15
2019-05-10T09:53:44.934Z,38.99
2019-05-10T09:54:49.215Z,38.67
2019-05-10T09:55:55.241Z,38.99
2019-05-10T09:56:52.052Z,39.63
2019-05-10T09:57:44.908Z,39.47
2019-05-10T09:58:44.902Z,38.99
2019-05-10T09:59:46.950Z,38.99
2019-05-10T10:00:44.891Z,38.99
2019-05-10T10:01:44.880Z,39.47
2019-05-10T10:02:49.475Z,39.15
2019-05-10T10:05:12.041Z,38.99
2019-05-10T10:06:12.035Z,38.51
2019-05-10T10:07:12.028Z,39.63
2019-05-10T10:08:12.031Z,38.99
2019-05-10T10:09:12.051Z,39.47
2019-05-10T10:10:12.747Z,39.15
2019-05-10T10:11:15.751Z,38.99
2019-05-10T10:13:43.604Z,39.63
2019-05-10T10:14:43.118Z,39.79
2019-05-10T10:15:39.280Z,39.15
2019-05-10T10:16:39.275Z,39.47
2019-05-10T10:17:42.350Z,38.99
2019-05-10T10:18:39.260Z,38.99
2019-05-10T10:19:40.581Z,39.63
2019-05-10T10:20:43.434Z,39.47
2019-05-10T10:21:39.240Z,39.31
2019-05-10T10:22:43.540Z,38.51
2019-05-10T10:29:00.886Z,38.99
2019-05-10T10:31:05.242Z,39.15
2019-05-10T10:32:00.818Z,39.47
2019-05-10T10:33:05.746Z,39.15
2019-05-10T10:35:30.024Z,39.79
2019-05-10T10:36:27.969Z,38.83
2019-05-10T10:37:31.194Z,39.31
2019-05-10T10:38:31.051Z,39.31
2019-05-10T10:39:27.951Z,39.15
2019-05-10T10:40:28.143Z,38.83
2019-05-10T10:41:31.907Z,38.99
2019-05-10T10:42:27.932Z,39.15
2019-05-10T10:44:27.971Z,39.79
2019-05-10T10:46:58.044Z,38.99
2019-05-10T10:47:57.163Z,38.99
2019-05-10T10:48:55.126Z,39.31
2019-05-10T10:49:57.338Z,39.63
2019-05-10T10:50:57.926Z,39.47
2019-05-10T10:51:57.298Z,38.99
2019-05-10T10:52:57.363Z,39.31
2019-05-10T10:53:58.029Z,38.99
2019-05-10T10:54:55.087Z,39.31
2019-05-10T10:56:00.903Z,39.31
2019-05-10T10:58:22.294Z,38.99
2019-05-10T10:59:22.285Z,39.47
2019-05-10T11:00:23.680Z,39.15
2019-05-10T11:01:25.586Z,38.99
2019-05-10T11:02:32.677Z,39.15
2019-05-10T11:03:30.394Z,39.47
2019-05-10T11:05:49.474Z,38.83
2019-05-10T11:06:49.467Z,39.15
2019-05-10T11:07:51.267Z,39.15
2019-05-10T11:08:51.713Z,38.99
2019-05-10T11:09:53.697Z,38.99
2019-05-10T11:12:21.060Z,39.31
2019-05-10T11:13:23.968Z,39.31
2019-05-10T11:15:43.949Z,39.31
2019-05-10T11:16:46.764Z,38.99
2019-05-10T11:19:15.435Z,39.63
2019-05-10T11:20:11.637Z,39.15
2019-05-10T11:21:11.336Z,38.99
2019-05-10T11:22:11.153Z,39.31
2019-05-10T11:23:11.148Z,38.83
2019-05-10T11:24:17.910Z,38.99
2019-05-10T11:25:12.838Z,39.15
2019-05-10T11:27:38.355Z,39.47
2019-05-10T11:28:40.048Z,39.15
2019-05-10T11:29:38.346Z,39.15
2019-05-10T11:30:38.344Z,39.31
2019-05-10T11:31:38.348Z,39.15
2019-05-10T11:32:38.323Z,39.47
2019-05-10T11:35:05.712Z,39.47
2019-05-10T11:36:08.613Z,39.31
2019-05-10T11:37:05.526Z,39.63
2019-05-10T11:38:06.621Z,39.63
2019-05-10T11:39:06.097Z,39.47
2019-05-10T11:40:05.512Z,39.47
2019-05-10T11:41:07.063Z,39.47
2019-05-10T11:45:00.797Z,39.31
2019-05-10T11:45:59.981Z,39.31
2019-05-10T11:47:01.488Z,39.47
2019-05-10T11:48:02.149Z,39.63
2019-05-10T11:49:01.801Z,39.79
2019-05-10T11:50:06.078Z,39.31
2019-05-10T11:52:29.102Z,39.63
2019-05-10T11:56:58.456Z,39.63
2019-05-10T11:59:27.300Z,38.99
2019-05-10T12:03:22.399Z,39.63
2019-05-10T12:04:24.078Z,39.63
2019-05-10T12:07:16.629Z,39.47
2019-05-10T12:07:46.118Z,39.79
2019-05-10T12:08:43.370Z,39.63
2019-05-10T12:09:43.363Z,40.12
2019-05-10T12:10:52.623Z,39.47
2019-05-10T12:13:18.594Z,39.63
2019-05-10T12:15:37.788Z,39.96
2019-05-10T12:17:37.823Z,39.96
2019-05-10T12:18:46.390Z,39.63
2019-05-10T12:21:09.537Z,39.31
2019-05-10T12:27:53.811Z,40.12
2019-05-10T12:28:53.802Z,39.79
2019-05-10T12:29:59.583Z,40.12
2019-05-10T12:32:21.393Z,39.96
2019-05-10T12:33:25.200Z,38.83
2019-05-10T12:40:14.899Z,39.31
2019-05-10T12:43:37.114Z,39.47
2019-05-10T12:44:38.951Z,39.63
2019-05-10T12:46:41.377Z,40.28
2019-05-10T12:47:37.111Z,39.47
2019-05-10T12:48:37.114Z,39.47
2019-05-10T12:49:37.101Z,39.47
2019-05-10T12:50:37.105Z,39.63
2019-05-10T12:51:37.097Z,39.47
2019-05-10T12:52:37.098Z,39.63
2019-05-10T12:53:44.461Z,39.63
2019-05-10T12:56:04.275Z,39.63
2019-05-10T12:57:04.246Z,39.79
2019-05-10T12:58:04.238Z,40.12
2019-05-10T13:00:06.750Z,39.47
2019-05-10T13:02:31.438Z,39.63
2019-05-10T13:03:33.658Z,39.63
2019-05-10T13:04:40.216Z,39.79
2019-05-10T13:06:58.663Z,39.47
2019-05-10T13:07:58.655Z,39.63
2019-05-10T13:08:58.699Z,39.96
2019-05-10T13:10:03.650Z,39.15
2019-05-10T13:12:25.858Z,38.99
2019-05-10T13:13:29.792Z,39.63
2019-05-10T13:14:28.938Z,39.31
2019-05-10T13:15:31.009Z,39.79
2019-05-10T13:16:25.829Z,39.63
2019-05-10T13:17:25.821Z,39.96
2019-05-10T13:18:49.163Z,39.47
2019-05-10T13:22:20.268Z,39.79
2019-05-10T13:23:20.252Z,39.63
2019-05-10T13:24:20.242Z,39.79
2019-05-10T13:25:20.327Z,40.12
2019-05-10T13:26:20.237Z,38.99
2019-05-10T13:27:20.227Z,39.96
2019-05-10T13:28:20.215Z,40.12
2019-05-10T13:29:20.208Z,39.47
2019-05-10T13:30:27.444Z,39.63
2019-05-10T13:32:47.432Z,39.63
2019-05-10T13:34:47.418Z,39.79
2019-05-10T13:35:50.731Z,39.79
2019-05-10T13:36:49.403Z,40.12
2019-05-10T13:37:47.422Z,39.96
2019-05-10T13:38:49.184Z,40.60
2019-05-10T13:39:47.408Z,39.63
2019-05-10T13:40:47.829Z,39.79
2019-05-10T13:41:47.396Z,39.63
2019-05-10T13:42:47.390Z,39.79
2019-05-10T13:43:47.395Z,39.15
2019-05-10T13:44:47.386Z,39.96
2019-05-10T13:45:47.378Z,40.12
2019-05-10T13:46:47.381Z,39.63
2019-05-10T13:47:47.365Z,39.96
2019-05-10T13:48:47.355Z,39.79
2019-05-10T13:51:14.585Z,40.12
2019-05-10T13:53:20.910Z,39.96
2019-05-10T13:55:41.774Z,39.96
2019-05-10T13:56:45.356Z,40.12
2019-05-10T13:59:15.823Z,39.63
2019-05-10T14:00:11.027Z,39.47
2019-05-10T14:01:13.053Z,40.12
2019-05-10T14:04:14.515Z,39.63
2019-05-10T14:04:41.302Z,39.79
2019-05-10T14:05:41.298Z,39.79
2019-05-10T14:06:41.287Z,39.63
2019-05-10T14:07:50.470Z,39.63
2019-05-10T14:10:08.639Z,40.28
2019-05-10T14:11:08.616Z,39.63
2019-05-10T14:12:08.612Z,39.63
2019-05-10T14:13:08.607Z,40.12
2019-05-10T14:14:08.599Z,39.63
2019-05-10T14:15:12.815Z,39.47
2019-05-10T14:16:13.579Z,40.28
2019-05-10T14:18:35.797Z,39.63
2019-05-10T14:19:36.405Z,39.96
2019-05-10T14:20:35.791Z,40.28
2019-05-10T14:21:35.984Z,39.63
2019-05-10T14:22:35.776Z,40.28
2019-05-10T14:23:37.339Z,39.96
2019-05-10T14:24:35.759Z,40.12
2019-05-10T14:25:37.150Z,39.96
2019-05-10T14:26:35.748Z,39.96
2019-05-10T14:27:38.089Z,40.28
2019-05-10T14:28:35.734Z,39.96
2019-05-10T14:29:36.845Z,39.79
2019-05-10T14:30:35.777Z,40.12
2019-05-10T14:31:35.731Z,39.79
2019-05-10T14:32:35.933Z,40.12
2019-05-10T14:33:35.707Z,39.96
2019-05-10T14:34:37.735Z,39.63
2019-05-10T14:35:37.691Z,40.28
2019-05-10T14:36:41.220Z,39.63
2019-05-10T14:40:02.897Z,40.44
2019-05-10T14:41:10.895Z,40.28
2019-05-10T14:42:04.878Z,40.28
2019-05-10T14:43:02.884Z,39.63
2019-05-10T14:44:02.865Z,39.47
2019-05-10T14:45:02.860Z,39.96
2019-05-10T14:46:02.891Z,40.28
2019-05-10T14:47:02.847Z,39.63
2019-05-10T14:48:02.842Z,39.79
2019-05-10T14:49:09.909Z,40.44
2019-05-10T14:50:04.826Z,39.96
2019-05-10T14:51:10.558Z,39.63
2019-05-10T14:53:29.991Z,40.12
2019-05-10T14:54:42.661Z,40.12
2019-05-10T14:56:57.193Z,39.96
2019-05-10T14:57:57.188Z,40.44
2019-05-10T14:58:57.178Z,39.63
2019-05-10T14:59:57.179Z,39.79
2019-05-10T15:00:57.172Z,39.63
2019-05-10T15:01:57.164Z,39.96
2019-05-10T15:03:01.975Z,40.12
2019-05-10T15:05:26.369Z,39.63
2019-05-10T15:06:24.366Z,40.28
2019-05-10T15:07:24.355Z,39.96
2019-05-10T15:08:24.349Z,39.79
2019-05-10T15:09:24.375Z,40.12
2019-05-10T15:10:24.338Z,39.96
2019-05-10T15:11:26.485Z,40.28
2019-05-10T15:13:51.596Z,40.12
2019-05-10T15:14:51.741Z,39.96
2019-05-10T15:15:51.532Z,40.12
2019-05-10T15:16:51.524Z,39.96
2019-05-10T15:17:55.296Z,40.28
2019-05-10T15:20:18.735Z,40.12
2019-05-10T15:21:18.723Z,40.28
2019-05-10T15:22:22.995Z,40.12
2019-05-10T15:23:18.710Z,40.12
2019-05-10T15:24:18.704Z,39.96
2019-05-10T15:25:18.699Z,39.79
2019-05-10T15:26:18.705Z,39.63
2019-05-10T15:27:21.675Z,40.12
2019-05-10T15:28:18.678Z,40.28
2019-05-10T15:29:22.550Z,40.44
2019-05-10T15:30:18.664Z,40.28
2019-05-10T15:31:18.659Z,40.12
2019-05-10T15:33:18.650Z,39.96
2019-05-10T15:34:18.639Z,39.96
2019-05-10T15:35:18.858Z,39.63
2019-05-10T15:36:18.663Z,40.12
2019-05-10T15:37:18.648Z,40.12
2019-05-10T15:38:18.640Z,39.63
2019-05-10T15:39:22.917Z,40.76
2019-05-10T15:41:45.852Z,40.44
2019-05-10T15:42:45.843Z,40.12
2019-05-10T15:43:48.871Z,40.12
2019-05-10T15:46:13.064Z,40.12
2019-05-10T15:47:20.500Z,40.44
2019-05-10T15:48:15.049Z,40.44
2019-05-10T15:49:13.433Z,40.28
2019-05-10T15:50:13.037Z,40.28
2019-05-10T15:51:16.762Z,40.60
2019-05-10T15:52:17.754Z,40.28
2019-05-10T15:53:13.018Z,40.44
2019-05-10T15:54:13.009Z,40.28
2019-05-10T15:55:16.588Z,40.28
2019-05-10T15:57:40.311Z,40.44
2019-05-10T15:58:42.270Z,40.12
2019-05-10T15:59:40.272Z,39.96
2019-05-10T16:00:41.654Z,40.28
2019-05-10T16:01:40.267Z,39.47
2019-05-10T16:02:40.260Z,40.44
2019-05-10T16:03:40.246Z,40.28
2019-05-10T16:04:40.237Z,40.12
2019-05-10T16:05:44.185Z,40.12
2019-05-10T16:06:40.225Z,40.12
2019-05-10T16:07:40.242Z,40.76
2019-05-10T16:08:40.241Z,40.12
2019-05-10T16:09:40.232Z,40.12
2019-05-10T16:10:40.994Z,40.12
2019-05-10T16:11:40.218Z,40.28
2019-05-10T16:12:43.235Z,39.96
2019-05-10T16:13:40.207Z,40.28
2019-05-10T16:14:41.625Z,39.79
2019-05-10T16:15:40.193Z,40.44
2019-05-10T16:16:40.187Z,40.12
2019-05-10T16:17:40.186Z,40.12
2019-05-10T16:18:41.706Z,39.79